Time;durP1;ratioP1;P1;durP2;ratioP2;P2;SDS_P1;SDS_P2;PMS_P1;PMS_P2;Temp;Humidity;BMP_temperature;BMP_pressure;BME280_temperature;BME280_humidity;BME280_pressure;Samples;Min_cycle;Max_cycle;Signal;HPM_P1;HPM_P2
2023/07/19 00:03:54;;;;;;;2.20;1.40;;;16.50;99.90;;;;;;4993715;28;20214;-90
2023/07/19 00:06:20;;;;;;;2.47;1.33;;;16.50;99.90;;;;;;4991800;28;20203;-90
2023/07/19 00:08:46;;;;;;;4.60;1.80;;;16.40;99.90;;;;;;4991316;28;20247;-87
2023/07/19 00:11:12;;;;;;;5.30;1.60;;;16.50;99.90;;;;;;4991932;28;20176;-90
2023/07/19 00:13:38;;;;;;;3.75;1.38;;;16.40;99.90;;;;;;4992789;28;20896;-90
2023/07/19 00:16:04;;;;;;;3.28;1.58;;;16.40;99.90;;;;;;4991956;28;20565;-89
2023/07/19 00:18:31;;;;;;;3.08;1.48;;;16.40;99.90;;;;;;4991732;28;20720;-90
2023/07/19 00:20:59;;;;;;;5.78;1.55;;;16.40;99.90;;;;;;4992532;28;20183;-91
2023/07/19 00:23:26;;;;;;;5.88;1.48;;;16.40;99.90;;;;;;4991413;28;20832;-90
2023/07/19 00:25:52;;;;;;;4.82;1.52;;;16.30;99.90;;;;;;4992771;28;20207;-91
2023/07/19 00:28:18;;;;;;;3.25;1.38;;;16.30;99.90;;;;;;4991815;28;20235;-90
2023/07/19 00:30:44;;;;;;;3.03;1.27;;;16.40;99.90;;;;;;4993125;28;20160;-90
2023/07/19 00:33:10;;;;;;;3.03;1.50;;;16.40;99.90;;;;;;4991785;28;20203;-90
2023/07/19 00:35:42;;;;;;;1.73;1.30;;;16.40;99.90;;;;;;4991589;28;20211;-90
2023/07/19 00:38:08;;;;;;;5.03;1.40;;;16.40;99.90;;;;;;4991608;28;20259;-90
2023/07/19 00:40:34;;;;;;;3.30;1.50;;;16.40;99.90;;;;;;4991517;28;20251;-93
2023/07/19 00:42:59;;;;;;;3.72;1.70;;;16.40;99.90;;;;;;4991473;28;20180;-89
2023/07/19 00:45:28;;;;;;;2.97;1.63;;;16.40;99.90;;;;;;4991434;28;20214;-89
2023/07/19 00:47:55;;;;;;;3.72;1.50;;;16.40;99.90;;;;;;4991317;28;20172;-90
2023/07/19 00:50:21;;;;;;;3.67;1.60;;;16.40;99.90;;;;;;4991261;28;20182;-92
2023/07/19 00:52:48;;;;;;;6.10;1.63;;;16.40;99.90;;;;;;4991364;28;20208;-90
2023/07/19 00:55:14;;;;;;;3.15;1.55;;;16.40;99.90;;;;;;4991572;28;20200;-92
2023/07/19 00:57:41;;;;;;;3.75;1.73;;;16.50;99.90;;;;;;4991321;28;20340;-90
2023/07/19 01:00:07;;;;;;;5.05;1.60;;;16.50;99.90;;;;;;4991264;28;20183;-91
2023/07/19 01:02:34;;;;;;;8.45;1.80;;;16.50;99.90;;;;;;4991036;28;20632;-88
2023/07/19 01:05:00;;;;;;;6.00;1.52;;;16.50;99.90;;;;;;4991037;28;20245;-89
2023/07/19 01:07:25;;;;;;;4.57;1.63;;;16.40;99.90;;;;;;4991013;28;20577;-92
2023/07/19 01:09:51;;;;;;;4.57;1.40;;;16.40;99.90;;;;;;4992483;28;20224;-89
2023/07/19 01:12:18;;;;;;;3.90;1.98;;;16.40;99.90;;;;;;4994929;28;20706;-90
2023/07/19 01:14:44;;;;;;;3.45;1.50;;;16.40;99.90;;;;;;4996078;28;20196;-92
2023/07/19 01:17:09;;;;;;;3.83;1.50;;;16.40;99.90;;;;;;4994903;28;20183;-90
2023/07/19 01:19:35;;;;;;;2.33;1.23;;;16.30;99.90;;;;;;4994989;28;20175;-91
2023/07/19 01:22:03;;;;;;;3.00;1.50;;;16.20;99.90;;;;;;4994672;28;20182;-91
2023/07/19 01:24:29;;;;;;;4.03;1.63;;;16.30;99.90;;;;;;4994701;28;20271;-88
2023/07/19 01:26:56;;;;;;;3.45;1.50;;;16.30;99.90;;;;;;4995095;28;20279;-91
2023/07/19 01:29:24;;;;;;;6.00;1.90;;;16.30;99.90;;;;;;4995949;28;20156;-89
2023/07/19 01:31:50;;;;;;;2.95;1.35;;;16.30;99.90;;;;;;4994454;28;20189;-92
2023/07/19 01:34:16;;;;;;;5.80;1.92;;;16.30;99.90;;;;;;4994540;28;20179;-89
2023/07/19 01:36:41;;;;;;;2.72;1.65;;;16.30;99.90;;;;;;4995722;28;20152;-92
2023/07/19 01:39:07;;;;;;;2.65;1.42;;;16.30;99.90;;;;;;4994932;28;20187;-92
2023/07/19 01:41:35;;;;;;;3.20;1.60;;;16.30;99.90;;;;;;4995536;28;20160;-91
2023/07/19 01:44:01;;;;;;;3.65;1.52;;;16.30;99.90;;;;;;4994478;28;20180;-90
2023/07/19 01:46:28;;;;;;;4.38;1.30;;;16.40;99.90;;;;;;4994559;28;20210;-89
2023/07/19 01:48:54;;;;;;;4.78;1.67;;;16.30;99.90;;;;;;4994522;28;20204;-90
2023/07/19 01:51:19;;;;;;;4.63;1.52;;;16.30;99.90;;;;;;4994151;28;20208;-92
2023/07/19 01:53:45;;;;;;;2.90;1.50;;;16.20;99.90;;;;;;4994581;28;20231;-90
2023/07/19 01:56:13;;;;;;;3.28;1.70;;;16.20;99.90;;;;;;4994056;28;20733;-91
2023/07/19 01:58:39;;;;;;;3.88;1.98;;;16.10;99.90;;;;;;4994442;28;20263;-92
2023/07/19 02:01:08;;;;;;;3.92;2.08;;;16.10;99.90;;;;;;4994083;28;20179;-89
2023/07/19 02:03:33;;;;;;;4.68;1.52;;;16.10;99.90;;;;;;4993866;28;20198;-91
2023/07/19 02:06:01;;;;;;;2.35;1.60;;;16.10;99.90;;;;;;4993800;28;20204;-91
2023/07/19 02:08:27;;;;;;;3.50;1.70;;;16.00;99.90;;;;;;4993949;28;20184;-91
2023/07/19 02:10:54;;;;;;;3.40;1.58;;;15.90;99.90;;;;;;4993563;28;20236;-89
2023/07/19 02:13:20;;;;;;;2.10;1.30;;;15.90;99.90;;;;;;4995245;28;20215;-90
2023/07/19 02:15:47;;;;;;;3.92;1.60;;;15.80;99.90;;;;;;4993817;28;20200;-89
2023/07/19 02:18:14;;;;;;;3.92;1.48;;;15.70;99.90;;;;;;4993792;28;20180;-89
2023/07/19 02:20:46;;;;;;;6.95;1.75;;;15.70;99.90;;;;;;4993260;28;20242;-90
2023/07/19 02:23:13;;;;;;;3.00;1.70;;;15.70;99.90;;;;;;4993653;28;20648;-92
2023/07/19 02:25:41;;;;;;;4.35;1.92;;;15.70;99.90;;;;;;4994841;28;20287;-90
2023/07/19 02:28:07;;;;;;;3.72;1.50;;;15.70;99.90;;;;;;4993589;28;20188;-91
2023/07/19 02:30:32;;;;;;;4.75;1.63;;;15.80;99.90;;;;;;4993270;28;20203;-91
2023/07/19 02:32:58;;;;;;;4.68;1.63;;;15.80;99.90;;;;;;4993043;28;20203;-89
2023/07/19 02:35:24;;;;;;;7.60;1.95;;;15.80;99.90;;;;;;4993237;28;20207;-92
2023/07/19 02:37:50;;;;;;;5.10;1.60;;;15.80;99.90;;;;;;4993729;28;20164;-91
2023/07/19 02:40:16;;;;;;;2.47;1.50;;;15.80;99.90;;;;;;4993146;28;20255;-92
2023/07/19 02:42:42;;;;;;;4.20;1.63;;;15.70;99.90;;;;;;4993323;28;20182;-90
2023/07/19 02:45:08;;;;;;;3.83;1.40;;;15.70;99.90;;;;;;5344433;23;20656;-84
2023/07/19 02:47:34;;;;;;;3.05;1.70;;;15.60;99.90;;;;;;4979112;28;20176;-83
2023/07/19 02:49:59;;;;;;;1.90;1.17;;;15.60;99.90;;;;;;4979228;28;20183;-83
2023/07/19 02:52:25;;;;;;;2.08;1.30;;;15.60;99.90;;;;;;4979100;28;20215;-83
2023/07/19 02:54:51;;;;;;;3.17;1.42;;;15.60;99.90;;;;;;4978776;28;20200;-84
2023/07/19 02:57:17;;;;;;;4.43;1.50;;;15.60;99.90;;;;;;4978951;28;20186;-84
2023/07/19 02:59:43;;;;;;;3.42;1.60;;;15.50;99.90;;;;;;4978805;28;20179;-83
2023/07/19 03:02:10;;;;;;;4.22;1.60;;;15.50;99.90;;;;;;4978826;28;20183;-83
2023/07/19 03:04:36;;;;;;;4.60;1.70;;;15.50;99.90;;;;;;4978348;28;20191;-83
2023/07/19 03:07:02;;;;;;;8.95;1.83;;;15.50;99.90;;;;;;4959902;28;20180;-83
2023/07/19 03:09:27;;;;;;;4.00;2.03;;;15.50;99.90;;;;;;4959490;28;20190;-83
2023/07/19 03:11:53;;;;;;;4.07;1.55;;;15.40;99.90;;;;;;4959515;28;20599;-83
2023/07/19 03:14:19;;;;;;;3.90;1.70;;;15.40;99.90;;;;;;4959182;28;20177;-82
2023/07/19 03:16:44;;;;;;;2.53;1.33;;;15.30;99.90;;;;;;4959022;28;20180;-83
2023/07/19 03:19:10;;;;;;;3.40;1.50;;;15.30;99.90;;;;;;4959608;28;20172;-84
2023/07/19 03:21:36;;;;;;;2.65;1.48;;;15.30;99.90;;;;;;4959407;28;20275;-84
2023/07/19 03:24:01;;;;;;;3.50;1.60;;;15.30;99.90;;;;;;4959507;28;20187;-83
2023/07/19 03:26:30;;;;;;;2.58;1.50;;;15.20;99.90;;;;;;4959818;28;21003;-84
2023/07/19 03:28:56;;;;;;;4.47;1.83;;;15.30;99.90;;;;;;4959423;28;20566;-83
2023/07/19 03:31:22;;;;;;;4.22;1.90;;;15.20;99.90;;;;;;4958888;28;20275;-83
2023/07/19 03:33:47;;;;;;;5.60;1.65;;;15.30;99.90;;;;;;4958414;28;20227;-84
2023/07/19 03:36:13;;;;;;;3.83;1.55;;;15.20;99.90;;;;;;4959280;28;20180;-85
2023/07/19 03:38:39;;;;;;;3.28;1.40;;;15.30;99.90;;;;;;4976577;28;20269;-85
2023/07/19 03:41:09;;;;;;;5.32;1.70;;;15.30;99.90;;;;;;4959291;28;20176;-84
2023/07/19 03:43:36;;;;;;;4.00;1.50;;;15.30;99.90;;;;;;4976333;28;20244;-83
2023/07/19 03:46:02;;;;;;;3.00;1.58;;;15.40;99.90;;;;;;4958632;28;20260;-84
2023/07/19 03:48:28;;;;;;;4.70;1.65;;;15.40;99.90;;;;;;4976422;28;20181;-84
2023/07/19 03:51:01;;;;;;;3.78;1.60;;;15.40;99.90;;;;;;4959211;28;20192;-84
2023/07/19 03:53:28;;;;;;;4.10;1.60;;;15.30;99.90;;;;;;4958464;28;20664;-84
2023/07/19 03:55:58;;;;;;;4.82;1.42;;;15.30;99.90;;;;;;4958857;28;20188;-84
2023/07/19 03:58:26;;;;;;;3.45;1.52;;;15.30;99.90;;;;;;4959019;28;20223;-85
2023/07/19 04:00:57;;;;;;;5.38;1.50;;;15.30;99.90;;;;;;4958451;28;20208;-83
2023/07/19 04:03:24;;;;;;;2.45;1.30;;;15.20;99.90;;;;;;4958627;28;20886;-84
2023/07/19 04:05:50;;;;;;;3.30;1.70;;;15.20;99.90;;;;;;4958615;28;20272;-84
2023/07/19 04:08:17;;;;;;;6.85;1.70;;;15.20;99.90;;;;;;4958631;28;20627;-85
2023/07/19 04:10:43;;;;;;;2.00;1.50;;;15.30;99.90;;;;;;4958663;28;20489;-85
2023/07/19 04:13:13;;;;;;;4.30;1.85;;;15.30;99.90;;;;;;4958132;28;20218;-90
2023/07/19 04:15:39;;;;;;;2.90;1.65;;;15.30;99.90;;;;;;4958738;28;20230;-90
2023/07/19 04:18:06;;;;;;;4.65;1.73;;;15.40;99.90;;;;;;4958970;28;20199;-89
2023/07/19 04:20:33;;;;;;;1.92;1.42;;;15.40;99.90;;;;;;4959025;28;20181;-89
2023/07/19 04:22:58;;;;;;;4.20;2.00;;;15.50;99.90;;;;;;4958956;28;20638;-91
2023/07/19 04:25:24;;;;;;;3.47;1.48;;;15.40;99.90;;;;;;4958765;28;20177;-88
2023/07/19 04:27:51;;;;;;;7.97;1.65;;;15.40;99.90;;;;;;4958850;28;20185;-89
2023/07/19 04:30:17;;;;;;;3.67;1.60;;;15.40;99.90;;;;;;4975546;28;20196;-85
2023/07/19 04:32:43;;;;;;;2.75;1.40;;;15.40;99.90;;;;;;4957909;28;20240;-84
2023/07/19 04:35:09;;;;;;;3.58;1.67;;;15.50;99.90;;;;;;4958199;28;20252;-83
2023/07/19 04:37:35;;;;;;;4.15;1.50;;;15.60;99.90;;;;;;4958498;28;20183;-84
2023/07/19 04:40:01;;;;;;;4.57;1.52;;;15.70;99.90;;;;;;4958604;28;20177;-85
2023/07/19 04:42:28;;;;;;;5.85;1.77;;;15.80;99.90;;;;;;4958575;28;20191;-84
2023/07/19 04:44:54;;;;;;;4.10;1.65;;;15.80;99.90;;;;;;4960334;28;20342;-86
2023/07/19 04:47:20;;;;;;;2.22;1.60;;;15.90;99.90;;;;;;4962746;28;20251;-85
2023/07/19 04:49:46;;;;;;;5.38;1.95;;;16.00;99.90;;;;;;4962532;28;20607;-84
2023/07/19 04:52:11;;;;;;;3.05;1.60;;;15.90;99.90;;;;;;4962221;28;20218;-85
2023/07/19 04:54:37;;;;;;;4.82;2.08;;;16.00;99.90;;;;;;4962088;28;20192;-84
2023/07/19 04:57:03;;;;;;;2.95;1.90;;;16.00;99.90;;;;;;4962504;28;20187;-84
2023/07/19 04:59:29;;;;;;;3.70;1.83;;;16.10;99.90;;;;;;4962334;28;20271;-84
2023/07/19 05:01:54;;;;;;;2.05;1.63;;;16.20;99.90;;;;;;4961890;28;20177;-85
2023/07/19 05:04:21;;;;;;;3.70;1.80;;;16.20;99.90;;;;;;4962101;28;20231;-85
2023/07/19 05:06:46;;;;;;;4.32;1.95;;;16.40;99.90;;;;;;4962311;28;20259;-86
2023/07/19 05:09:16;;;;;;;2.95;1.88;;;16.40;99.90;;;;;;4962459;28;20251;-85
2023/07/19 05:11:42;;;;;;;6.13;1.85;;;16.50;99.90;;;;;;4962002;28;20596;-84
2023/07/19 05:14:08;;;;;;;5.43;1.77;;;16.50;99.90;;;;;;4962386;28;20195;-85
2023/07/19 05:16:34;;;;;;;7.00;2.17;;;16.50;99.90;;;;;;4961911;28;20236;-85
2023/07/19 05:19:00;;;;;;;7.05;2.05;;;16.50;99.90;;;;;;4961980;28;20184;-84
2023/07/19 05:21:26;;;;;;;4.22;2.05;;;16.50;99.90;;;;;;4962067;28;20291;-84
2023/07/19 05:23:51;;;;;;;2.90;1.90;;;16.50;99.90;;;;;;4961700;28;20584;-85
2023/07/19 05:26:18;;;;;;;4.95;2.00;;;16.70;99.90;;;;;;4961587;28;20196;-85
2023/07/19 05:28:45;;;;;;;6.75;2.13;;;16.70;99.90;;;;;;4961360;28;20223;-84
2023/07/19 05:31:11;;;;;;;8.48;2.05;;;16.90;99.90;;;;;;4961418;28;20496;-86
2023/07/19 05:33:37;;;;;;;9.73;2.15;;;17.10;99.90;;;;;;4961351;28;20216;-84
2023/07/19 05:36:03;;;;;;;4.80;2.33;;;17.30;99.90;;;;;;4961999;28;20682;-85
2023/07/19 05:38:30;;;;;;;2.40;1.65;;;17.40;99.90;;;;;;4961742;28;20184;-84
2023/07/19 05:41:03;;;;;;;4.43;2.10;;;17.40;99.90;;;;;;4961749;28;20173;-87
2023/07/19 05:43:29;;;;;;;5.47;2.00;;;17.50;99.90;;;;;;4961447;28;20526;-84
2023/07/19 05:46:06;;;;;;;4.47;2.15;;;17.50;99.90;;;;;;4960971;28;20260;-85
2023/07/19 05:48:34;;;;;;;3.80;2.03;;;17.50;99.90;;;;;;4961067;28;20180;-85
2023/07/19 05:51:02;;;;;;;6.80;2.15;;;17.50;99.90;;;;;;4961316;28;20172;-85
2023/07/19 05:53:28;;;;;;;3.75;2.00;;;17.50;99.90;;;;;;4960839;28;20208;-85
2023/07/19 05:55:54;;;;;;;4.85;2.58;;;17.50;99.90;;;;;;4978027;28;20219;-84
2023/07/19 05:58:20;;;;;;;3.15;2.05;;;17.60;99.90;;;;;;4961159;28;20176;-84
2023/07/19 06:00:47;;;;;;;2.67;1.85;;;17.70;99.90;;;;;;4960764;28;20521;-85
2023/07/19 06:03:16;;;;;;;4.30;1.88;;;17.80;99.90;;;;;;4960976;28;20188;-84
2023/07/19 06:05:43;;;;;;;4.22;1.98;;;17.80;99.90;;;;;;4957084;28;20196;-84
2023/07/19 06:08:10;;;;;;;7.75;2.50;;;17.90;99.90;;;;;;4961130;28;20191;-85
2023/07/19 06:10:36;;;;;;;4.65;2.30;;;18.00;99.90;;;;;;4960827;28;20169;-83
2023/07/19 06:13:03;;;;;;;4.80;2.00;;;18.10;99.90;;;;;;4960728;28;20263;-84
2023/07/19 06:15:32;;;;;;;2.38;1.83;;;18.10;99.90;;;;;;4977627;28;20265;-84
2023/07/19 06:17:58;;;;;;;3.88;2.35;;;18.20;99.90;;;;;;4960622;28;20930;-85
2023/07/19 06:20:24;;;;;;;3.72;2.05;;;18.20;99.90;;;;;;4960618;28;20188;-84
2023/07/19 06:22:50;;;;;;;4.38;2.00;;;18.40;99.90;;;;;;4960667;28;20186;-85
2023/07/19 06:25:16;;;;;;;4.00;2.22;;;18.50;99.90;;;;;;4960635;28;20236;-83
2023/07/19 06:27:42;;;;;;;4.30;2.00;;;18.70;99.90;;;;;;4960775;28;20268;-86
2023/07/19 06:30:11;;;;;;;4.05;1.95;;;18.80;99.90;;;;;;4960645;28;20267;-85
2023/07/19 06:32:37;;;;;;;4.10;1.88;;;18.90;99.90;;;;;;4960778;28;20235;-86
2023/07/19 06:35:04;;;;;;;3.13;1.75;;;18.80;99.90;;;;;;4959857;28;20311;-84
2023/07/19 06:37:30;;;;;;;5.40;2.20;;;18.80;99.90;;;;;;4960247;28;20202;-84
2023/07/19 06:39:56;;;;;;;5.82;2.17;;;18.70;99.90;;;;;;4959918;28;20243;-85
2023/07/19 06:42:22;;;;;;;4.45;1.80;;;18.70;99.90;;;;;;4959965;28;20271;-85
2023/07/19 06:44:48;;;;;;;5.40;1.90;;;18.70;99.90;;;;;;4976563;28;20226;-85
2023/07/19 06:47:14;;;;;;;4.57;2.00;;;18.70;99.90;;;;;;4976586;28;20619;-84
2023/07/19 06:49:41;;;;;;;5.40;2.20;;;18.80;99.90;;;;;;4959696;28;20311;-84
2023/07/19 06:52:08;;;;;;;2.78;1.50;;;18.90;99.90;;;;;;4960008;28;20220;-85
2023/07/19 06:54:33;;;;;;;5.03;1.67;;;19.10;99.90;;;;;;4976638;28;20298;-84
2023/07/19 06:57:00;;;;;;;3.53;1.90;;;19.20;99.90;;;;;;4959778;28;20650;-85
2023/07/19 06:59:29;;;;;;;3.38;1.75;;;19.40;99.90;;;;;;4958671;28;20523;-85
2023/07/19 07:01:55;;;;;;;2.33;1.80;;;19.50;99.90;;;;;;4976536;28;20250;-85
2023/07/19 07:04:21;;;;;;;8.73;2.15;;;19.70;99.90;;;;;;4959112;28;20615;-85
2023/07/19 07:06:46;;;;;;;5.00;2.25;;;19.80;99.90;;;;;;4959548;28;20181;-86
2023/07/19 07:09:14;;;;;;;3.38;1.92;;;19.90;99.90;;;;;;4958446;28;20176;-85
2023/07/19 07:11:40;;;;;;;6.20;2.20;;;20.20;99.90;;;;;;4957649;29;20585;-87
2023/07/19 07:14:06;;;;;;;3.80;1.77;;;20.40;99.90;;;;;;4940249;29;20299;-87
2023/07/19 07:16:32;;;;;;;4.10;1.80;;;20.40;99.90;;;;;;4960729;28;20180;-87
2023/07/19 07:18:57;;;;;;;3.20;1.50;;;20.60;99.90;;;;;;4975734;28;20961;-86
2023/07/19 07:21:23;;;;;;;5.93;1.98;;;20.80;99.90;;;;;;4968233;28;20192;-85
2023/07/19 07:23:49;;;;;;;4.63;1.92;;;20.80;99.90;;;;;;4959289;28;20185;-86
2023/07/19 07:26:15;;;;;;;3.88;1.60;;;20.50;99.90;;;;;;4958700;28;20185;-86
2023/07/19 07:28:54;;;;;;;2.35;1.65;;;20.50;99.90;;;;;;5071971;28;20556;-86
2023/07/19 07:31:20;;;;;;;2.45;1.63;;;20.70;99.90;;;;;;5074092;28;20184;-85
2023/07/19 07:33:46;;;;;;;2.13;1.70;;;20.90;99.90;;;;;;5090848;28;20520;-86
2023/07/19 07:36:12;;;;;;;4.57;1.63;;;21.10;99.90;;;;;;5089767;28;20196;-84
2023/07/19 07:38:37;;;;;;;2.03;1.50;;;21.30;99.90;;;;;;5091977;28;20164;-87
2023/07/19 07:41:11;;;;;;;2.55;1.50;;;21.50;99.90;;;;;;5091015;28;20621;-85
2023/07/19 07:43:37;;;;;;;4.03;1.70;;;21.60;99.90;;;;;;5087581;28;20202;-86
2023/07/19 07:46:03;;;;;;;4.15;2.00;;;21.70;99.90;;;;;;5070711;28;20188;-88
2023/07/19 07:48:30;;;;;;;6.40;1.90;;;21.90;99.80;;;;;;5070673;28;20213;-87
2023/07/19 07:50:58;;;;;;;2.53;1.75;;;21.90;99.10;;;;;;5069802;28;20185;-85
2023/07/19 07:53:24;;;;;;;5.97;1.67;;;21.90;99.60;;;;;;5070567;28;20177;-85
2023/07/19 07:55:50;;;;;;;3.53;1.67;;;22.00;99.90;;;;;;5069913;28;20181;-88
2023/07/19 07:58:16;;;;;;;4.55;1.73;;;22.10;99.90;;;;;;5071642;28;20173;-85
2023/07/19 08:00:43;;;;;;;4.32;1.98;;;22.00;99.90;;;;;;5069855;28;20272;-86
2023/07/19 08:03:09;;;;;;;6.03;1.75;;;21.80;99.90;;;;;;5069166;28;20184;-87
2023/07/19 08:05:36;;;;;;;3.53;1.55;;;21.60;99.90;;;;;;5070118;28;20681;-84
2023/07/19 08:08:04;;;;;;;4.05;1.50;;;21.40;99.90;;;;;;5070226;28;20330;-85
2023/07/19 08:10:31;;;;;;;5.22;1.70;;;21.50;99.90;;;;;;5069802;28;20181;-87
2023/07/19 08:12:57;;;;;;;3.92;1.50;;;21.80;99.90;;;;;;5070210;28;20624;-92
2023/07/19 08:15:25;;;;;;;4.30;1.40;;;22.10;99.20;;;;;;5071529;28;20185;-87
2023/07/19 08:17:54;;;;;;;2.30;1.33;;;22.20;99.20;;;;;;5069954;28;20184;-89
2023/07/19 08:20:20;;;;;;;4.10;1.40;;;22.20;97.40;;;;;;5071170;28;20169;-90
2023/07/19 08:22:45;;;;;;;3.80;1.63;;;22.20;96.70;;;;;;5069989;28;20223;-87
2023/07/19 08:25:11;;;;;;;5.18;1.27;;;22.20;97.80;;;;;;5069826;28;20268;-86
2023/07/19 08:27:37;;;;;;;1.85;1.05;;;22.30;97.20;;;;;;5070642;28;20614;-86
2023/07/19 08:30:09;;;;;;;3.88;1.38;;;22.30;98.10;;;;;;5069768;28;20173;-87
2023/07/19 08:32:34;;;;;;;2.58;1.10;;;22.30;96.90;;;;;;5069714;28;20177;-85
2023/07/19 08:35:01;;;;;;;4.03;1.20;;;22.30;96.80;;;;;;5069752;28;20184;-85
2023/07/19 08:37:26;;;;;;;3.47;1.20;;;22.40;97.30;;;;;;5070958;28;20169;-86
2023/07/19 08:39:52;;;;;;;4.35;1.23;;;22.40;96.80;;;;;;5057945;28;20178;-86
2023/07/19 08:42:18;;;;;;;2.00;1.08;;;22.40;96.50;;;;;;5056499;28;20182;-88
2023/07/19 08:44:43;;;;;;;5.43;1.20;;;22.50;96.60;;;;;;5056395;28;20635;-93
2023/07/19 08:47:11;;;;;;;2.97;1.17;;;22.60;96.10;;;;;;5056657;28;20216;-86
2023/07/19 08:49:38;;;;;;;2.65;1.15;;;22.50;95.70;;;;;;5056035;28;20619;-87
2023/07/19 08:52:07;;;;;;;2.30;1.35;;;22.30;96.70;;;;;;5056230;28;20182;-88
2023/07/19 08:54:32;;;;;;;3.25;1.30;;;22.20;95.80;;;;;;5056183;28;20196;-88
2023/07/19 08:56:58;;;;;;;2.90;1.27;;;22.30;96.20;;;;;;5057808;28;20170;-88
2023/07/19 08:59:25;;;;;;;3.05;1.33;;;22.50;95.10;;;;;;5055962;28;20188;-87
2023/07/19 09:01:52;;;;;;;4.00;1.25;;;22.60;94.70;;;;;;5056416;28;20671;-87
2023/07/19 09:04:18;;;;;;;4.07;1.08;;;22.70;95.90;;;;;;5055882;28;20269;-86
2023/07/19 09:06:44;;;;;;;4.57;1.50;;;22.90;94.20;;;;;;5056087;28;20293;-88
2023/07/19 09:09:10;;;;;;;6.07;1.48;;;23.00;92.90;;;;;;5055673;28;20631;-91
2023/07/19 09:11:45;;;;;;;4.95;1.30;;;23.00;93.80;;;;;;5056111;28;20178;-88
2023/07/19 09:14:11;;;;;;;3.40;1.40;;;23.10;94.60;;;;;;5055946;28;20204;-88
2023/07/19 09:16:38;;;;;;;3.88;1.25;;;23.20;93.70;;;;;;5056062;28;20608;-86
2023/07/19 09:19:04;;;;;;;3.55;1.30;;;23.30;94.80;;;;;;5058768;28;20236;-88
2023/07/19 09:21:39;;;;;;;2.40;1.30;;;23.30;94.00;;;;;;5075512;28;20173;-87
2023/07/19 09:24:06;;;;;;;3.17;1.42;;;23.20;95.30;;;;;;5075662;28;20196;-87
2023/07/19 09:26:53;;;;;;;2.38;1.02;;;23.40;94.70;;;;;;5075799;28;20673;-88
2023/07/19 09:29:19;;;;;;;4.65;1.38;;;23.50;94.60;;;;;;5077146;28;20255;-92
2023/07/19 09:32:03;;;;;;;3.33;1.52;;;23.50;94.40;;;;;;5075809;28;20315;-86
2023/07/19 09:34:38;;;;;;;2.80;1.30;;;23.60;95.10;;;;;;5075746;28;20196;-87
2023/07/19 09:37:04;;;;;;;7.50;1.40;;;23.80;92.80;;;;;;5075552;28;20176;-88
2023/07/19 09:39:34;;;;;;;3.55;1.30;;;23.90;93.50;;;;;;5075212;28;20303;-87
2023/07/19 09:42:03;;;;;;;5.75;1.85;;;24.00;92.60;;;;;;5075845;28;20177;-87
2023/07/19 09:44:29;;;;;;;6.13;1.45;;;23.80;93.20;;;;;;5074971;28;20169;-86
2023/07/19 09:46:57;;;;;;;5.70;1.45;;;23.70;92.50;;;;;;5075166;28;20215;-88
2023/07/19 09:49:25;;;;;;;2.00;1.48;;;23.40;92.50;;;;;;5069001;28;20186;-89
2023/07/19 09:52:01;;;;;;;1.98;1.20;;;23.40;95.70;;;;;;5054191;28;20176;-89
2023/07/19 09:54:28;;;;;;;2.72;1.30;;;23.60;93.80;;;;;;5054922;28;20177;-88
2023/07/19 09:56:54;;;;;;;3.75;1.65;;;23.70;93.80;;;;;;5055132;28;20182;-87
2023/07/19 09:59:40;;;;;;;4.43;1.52;;;24.00;93.90;;;;;;5054856;28;20666;-88
2023/07/19 10:02:12;;;;;;;4.50;1.30;;;24.20;92.10;;;;;;5056075;28;20202;-92
2023/07/19 10:04:42;;;;;;;2.88;1.20;;;24.30;93.10;;;;;;5055948;28;20169;-87
2023/07/19 10:07:12;;;;;;;1.98;1.20;;;24.40;93.40;;;;;;5054659;28;20293;-86
2023/07/19 10:09:43;;;;;;;5.55;1.30;;;24.30;92.60;;;;;;5054388;28;20176;-85
2023/07/19 10:12:17;;;;;;;3.25;1.42;;;24.30;93.50;;;;;;5055903;28;20196;-88
2023/07/19 10:14:56;;;;;;;4.03;1.40;;;24.50;92.30;;;;;;5054648;28;20192;-87
2023/07/19 10:17:25;;;;;;;4.38;1.52;;;24.50;92.30;;;;;;5055727;28;20499;-86
2023/07/19 10:20:14;;;;;;;3.58;1.63;;;24.60;91.80;;;;;;5064805;28;20181;-86
2023/07/19 10:22:55;;;;;;;2.85;1.35;;;24.80;91.50;;;;;;5074542;28;20185;-85
2023/07/19 10:25:35;;;;;;;4.43;1.73;;;25.00;92.00;;;;;;5074141;28;20178;-87
2023/07/19 10:28:07;;;;;;;3.75;1.30;;;25.00;91.10;;;;;;5074129;28;20236;-84
2023/07/19 10:30:55;;;;;;;3.80;1.45;;;25.10;91.20;;;;;;5074210;28;20173;-89
2023/07/19 10:33:26;;;;;;;6.28;1.48;;;25.20;91.70;;;;;;5073887;28;20177;-86
2023/07/19 10:36:13;;;;;;;4.00;1.50;;;25.30;91.90;;;;;;5073791;28;20201;-89
2023/07/19 10:38:39;;;;;;;6.18;1.60;;;25.50;92.10;;;;;;5073314;28;20264;-86
2023/07/19 10:41:12;;;;;;;4.88;1.60;;;25.60;90.70;;;;;;5073885;28;20216;-87
2023/07/19 10:43:40;;;;;;;2.63;1.50;;;25.60;91.70;;;;;;5073671;28;20268;-87
2023/07/19 10:46:06;;;;;;;6.55;1.60;;;25.80;90.50;;;;;;5074202;28;20185;-89
2023/07/19 10:48:37;;;;;;;5.82;1.60;;;25.60;90.40;;;;;;5073664;28;20208;-87
2023/07/19 10:51:05;;;;;;;3.42;1.50;;;25.50;91.70;;;;;;5033917;28;20248;-87
2023/07/19 10:53:41;;;;;;;3.90;1.45;;;25.20;91.30;;;;;;5033726;28;20178;-91
2023/07/19 10:56:07;;;;;;;7.03;1.42;;;24.80;91.10;;;;;;5034280;28;20278;-87
2023/07/19 10:58:33;;;;;;;6.45;1.50;;;24.60;91.80;;;;;;5033767;28;20261;-86
2023/07/19 11:00:58;;;;;;;4.78;1.50;;;24.70;92.90;;;;;;5033503;28;20609;-86
2023/07/19 11:03:26;;;;;;;5.00;1.50;;;24.80;93.30;;;;;;5034340;28;20177;-85
2023/07/19 11:05:52;;;;;;;3.85;1.55;;;25.00;92.70;;;;;;5042601;28;20487;-87
2023/07/19 11:08:23;;;;;;;4.57;1.75;;;24.90;92.50;;;;;;5053735;28;20714;-86
2023/07/19 11:10:53;;;;;;;3.33;1.40;;;24.80;92.60;;;;;;5053503;28;20185;-87
2023/07/19 11:13:20;;;;;;;4.80;1.30;;;24.80;93.00;;;;;;5054577;28;20252;-85
2023/07/19 11:15:58;;;;;;;3.25;1.73;;;25.00;92.90;;;;;;5053567;28;20551;-86
2023/07/19 11:18:52;;;;;;;3.58;1.33;;;25.10;92.20;;;;;;5053748;28;20304;-87
2023/07/19 11:21:26;;;;;;;5.38;1.40;;;24.80;92.60;;;;;;5052000;28;20190;-85
2023/07/19 11:23:53;;;;;;;6.30;1.40;;;24.40;94.70;;;;;;5053194;28;20182;-86
2023/07/19 11:26:19;;;;;;;3.72;1.42;;;24.20;93.10;;;;;;5053896;28;20189;-87
2023/07/19 11:28:56;;;;;;;3.45;1.40;;;23.90;92.80;;;;;;5053372;28;20233;-86
2023/07/19 11:31:38;;;;;;;4.85;1.30;;;23.70;94.30;;;;;;5054049;28;20678;-87
2023/07/19 11:34:16;;;;;;;3.25;1.33;;;23.90;93.40;;;;;;5053559;28;20197;-85
2023/07/19 11:36:46;;;;;;;2.45;1.20;;;24.00;94.20;;;;;;5053264;28;20181;-87
2023/07/19 11:39:15;;;;;;;3.65;1.50;;;24.00;93.50;;;;;;5053495;28;20193;-87
2023/07/19 11:41:46;;;;;;;6.15;1.83;;;24.00;94.50;;;;;;5053287;28;20609;-86
2023/07/19 11:44:19;;;;;;;3.97;1.10;;;24.00;94.50;;;;;;5053314;28;20180;-87
2023/07/19 11:46:45;;;;;;;3.17;1.20;;;23.90;93.40;;;;;;5053341;28;20268;-86
2023/07/19 11:49:11;;;;;;;4.22;1.40;;;23.70;93.60;;;;;;5052763;28;20192;-87
2023/07/19 11:51:37;;;;;;;3.38;1.35;;;23.70;92.80;;;;;;5054335;28;20581;-87
2023/07/19 11:54:03;;;;;;;3.17;1.15;;;23.60;93.00;;;;;;5053151;28;20178;-86
2023/07/19 11:56:30;;;;;;;4.60;1.52;;;23.60;94.30;;;;;;5052632;28;20220;-89
2023/07/19 11:58:57;;;;;;;2.08;1.40;;;23.50;93.10;;;;;;5052924;28;20691;-92
2023/07/19 12:01:23;;;;;;;4.55;1.30;;;23.50;94.00;;;;;;5052837;28;20186;-87
2023/07/19 12:03:49;;;;;;;4.80;1.42;;;23.50;94.40;;;;;;5053328;28;20174;-88
2023/07/19 12:06:15;;;;;;;7.63;1.20;;;23.60;93.20;;;;;;5053210;28;20178;-87
2023/07/19 12:08:41;;;;;;;3.58;1.20;;;23.60;93.30;;;;;;5053532;28;20221;-92
2023/07/19 12:11:08;;;;;;;5.55;1.30;;;23.80;94.00;;;;;;5053467;28;20170;-86
2023/07/19 12:13:34;;;;;;;5.68;1.33;;;23.80;93.40;;;;;;5053591;28;20182;-86
2023/07/19 12:16:00;;;;;;;4.20;1.25;;;23.80;94.20;;;;;;5057063;28;20189;-87
2023/07/19 12:18:28;;;;;;;5.25;1.30;;;23.80;94.10;;;;;;5056976;28;20178;-89
2023/07/19 12:20:53;;;;;;;4.10;1.38;;;23.70;94.00;;;;;;5057916;28;20182;-87
2023/07/19 12:23:19;;;;;;;3.33;1.50;;;23.60;93.70;;;;;;5056872;28;20181;-87
2023/07/19 12:25:45;;;;;;;3.90;1.40;;;23.60;95.00;;;;;;5056969;28;20634;-90
2023/07/19 12:28:11;;;;;;;4.82;1.35;;;23.70;93.50;;;;;;5056614;28;20230;-88
2023/07/19 12:30:39;;;;;;;4.55;1.20;;;23.80;93.30;;;;;;5057133;28;20277;-91
2023/07/19 12:33:16;;;;;;;3.33;1.58;;;23.90;93.70;;;;;;5056767;28;20181;-89
2023/07/19 12:35:46;;;;;;;2.03;1.20;;;24.10;95.30;;;;;;5057854;28;20166;-87
2023/07/19 12:38:13;;;;;;;3.72;1.33;;;24.40;93.50;;;;;;5048627;28;20192;-85
2023/07/19 12:40:39;;;;;;;4.35;1.60;;;24.50;92.10;;;;;;5053149;28;20511;-87
2023/07/19 12:43:05;;;;;;;2.42;1.17;;;24.40;93.00;;;;;;5057701;28;20356;-92
2023/07/19 12:45:31;;;;;;;3.50;1.20;;;24.40;92.00;;;;;;5055950;28;20178;-88
2023/07/19 12:47:57;;;;;;;3.50;1.00;;;24.40;93.20;;;;;;5057648;28;20218;-89
2023/07/19 12:50:24;;;;;;;3.60;1.40;;;24.20;92.50;;;;;;5057367;28;20178;-92
2023/07/19 12:52:50;;;;;;;3.72;1.30;;;24.10;92.30;;;;;;5057548;28;20170;-88